cjoint

Publicité


Publicité

Format du document : text/plain

Prévisualisation

Pression relative Température INT. Humidité INT. Température EXT. Humidité EXT. Point de rosée Windchill Vitesse du vent Direction du Vent Pluie / Total Heure Date
[hPa] [°C] [%] [°C] [%] [°C] [°C] [km/h] [mm]
1027.0 19.4 64 13.0 93 11.9 13.0 0.0 S 860.3 07:20 13.11.2015
1027.1 19.7 64 13.0 93 11.9 13.0 0.0 SSO 860.3 07:25 13.11.2015
1027.0 19.9 64 12.9 93 11.8 12.9 0.0 S 860.3 07:30 13.11.2015
1027.0 20.1 64 12.9 93 11.8 12.9 0.0 SSO 860.3 07:35 13.11.2015
1027.0 20.3 64 12.9 93 11.8 12.9 0.0 SSO 860.3 07:40 13.11.2015
1027.1 20.4 64 12.9 93 11.8 12.9 0.0 S 860.3 07:45 13.11.2015
1027.2 20.6 63 12.9 93 11.8 12.9 0.0 O 860.3 07:50 13.11.2015
1027.4 20.8 63 12.8 93 11.7 12.8 0.0 SSO 860.3 07:55 13.11.2015
1027.5 21.0 63 12.8 93 11.7 12.8 0.0 SSO 860.3 08:00 13.11.2015
1027.6 21.2 63 12.8 93 11.7 12.8 0.0 ONO 860.3 08:05 13.11.2015
1027.7 21.3 63 12.8 93 11.7 12.8 0.0 S 860.3 08:10 13.11.2015
1027.7 21.4 62 12.8 93 11.7 12.8 0.0 S 860.3 08:15 13.11.2015
1027.7 21.6 62 12.8 93 11.7 12.8 0.0 SSO 860.3 08:20 13.11.2015
1027.7 21.7 62 12.8 93 11.7 12.8 0.0 S 860.3 08:25 13.11.2015
1027.7 21.8 61 12.7 92 11.4 12.7 0.0 SSO 860.3 08:30 13.11.2015
1027.7 21.9 61 12.7 92 11.4 12.7 0.0 S 860.3 08:35 13.11.2015
1027.9 22.0 61 12.7 92 11.4 12.7 0.0 S 860.3 08:40 13.11.2015
1027.7 22.1 61 12.8 93 11.7 12.8 0.0 S 860.3 08:45 13.11.2015
1028.0 22.2 61 12.8 93 11.7 12.8 0.0 SO 860.3 08:50 13.11.2015
1028.1 22.1 61 12.8 93 11.7 12.8 0.0 SSE 860.3 08:55 13.11.2015
1028.2 22.0 61 12.8 93 11.7 12.8 0.0 SSO 860.3 09:00 13.11.2015
1028.2 21.8 61 12.9 93 11.8 12.9 0.0 SSO 860.3 09:05 13.11.2015
1028.2 21.8 61 12.9 93 11.8 12.9 0.0 SSO 860.3 09:10 13.11.2015
1028.4 21.7 61 12.9 93 11.8 12.9 0.0 S 860.3 09:15 13.11.2015
1028.2 21.6 61 13.1 93 12.0 13.1 0.0 SSE 860.3 09:20 13.11.2015
1028.2 21.6 61 13.2 93 12.1 13.2 0.0 SSE 860.3 09:25 13.11.2015
1028.5 21.5 61 13.2 93 12.1 13.2 0.0 SSO 860.3 09:30 13.11.2015
1028.5 21.4 61 13.2 93 12.1 13.2 0.0 SSO 860.3 09:35 13.11.2015
1028.6 21.4 61 13.2 93 12.1 13.2 0.0 S 860.3 09:40 13.11.2015
1028.7 21.3 62 13.2 93 12.1 13.2 0.0 SSO 860.3 09:45 13.11.2015
1028.7 21.2 62 13.2 93 12.1 13.2 0.0 S 860.3 09:50 13.11.2015
1028.7 21.2 62 13.3 93 12.2 13.3 0.0 SSO 860.3 09:55 13.11.2015
1028.9 21.2 62 13.3 93 12.2 13.3 0.0 SSO 860.3 10:00 13.11.2015
1028.9 21.1 62 13.4 93 12.3 13.4 0.0 SSO 860.3 10:05 13.11.2015
1028.7 21.0 62 13.4 92 12.1 13.4 0.0 SSE 860.3 10:10 13.11.2015
1028.7 21.0 62 13.8 92 12.5 13.8 0.0 S 860.3 10:15 13.11.2015
1028.9 21.0 62 13.9 92 12.6 13.9 0.0 SSE 860.3 10:20 13.11.2015
1028.7 21.0 62 13.9 92 12.6 13.9 0.0 S 860.3 10:25 13.11.2015
1028.9 20.9 62 14.1 93 13.0 14.1 0.0 SSE 860.3 10:30 13.11.2015
1028.7 20.9 62 14.2 93 13.1 14.2 0.0 S 860.3 10:35 13.11.2015
1028.9 20.8 62 14.3 92 13.0 14.3 0.0 SSO 860.3 10:40 13.11.2015
1028.7 20.8 62 14.4 92 13.1 14.4 0.0 S 860.3 10:45 13.11.2015
1028.9 20.8 62 14.3 92 13.0 14.3 0.0 SSO 860.3 10:50 13.11.2015
1029.0 20.7 63 14.3 92 13.0 14.3 0.0 N 860.3 10:55 13.11.2015
1029.0 20.7 63 14.3 92 13.0 14.3 0.0 N 860.3 11:00 13.11.2015
1029.1 20.7 63 14.4 92 13.1 14.4 0.0 O 860.3 11:05 13.11.2015
1029.2 20.6 63 14.6 92 13.3 14.6 0.0 ONO 860.3 11:10 13.11.2015
1029.1 20.6 63 15.0 92 13.7 15.0 0.0 O 860.3 11:15 13.11.2015
1029.1 20.6 63 15.2 92 13.9 15.2 0.0 O 860.3 11:20 13.11.2015
1029.2 20.6 63 15.1 92 13.8 15.1 0.0 ONO 860.3 11:25 13.11.2015
1029.2 20.5 63 15.1 92 13.8 15.1 0.0 NO 860.3 11:30 13.11.2015
1029.2 20.5 63 14.9 92 13.6 14.9 0.0 NO 860.8 11:35 13.11.2015
1029.4 20.5 63 14.9 92 13.6 14.9 0.0 O 860.8 11:40 13.11.2015
1029.5 20.5 63 14.9 92 13.6 14.9 0.0 O 860.8 11:45 13.11.2015
1029.4 20.4 63 14.9 92 13.6 14.9 0.0 O 860.8 11:50 13.11.2015
1029.2 20.4 63 14.9 92 13.6 14.9 0.0 OSO 860.8 11:55 13.11.2015
1029.5 20.4 63 15.3 92 14.0 15.3 0.0 O 860.8 12:00 13.11.2015
1029.5 20.4 63 15.4 93 14.2 15.4 0.0 ONO 860.8 12:05 13.11.2015
1029.5 20.4 63 15.6 93 14.4 15.6 0.0 NO 860.8 12:10 13.11.2015
1029.5 20.4 63 15.9 93 14.7 15.9 0.0 NO 860.8 12:15 13.11.2015
1029.4 20.4 63 16.4 92 15.1 --- --- --- 860.8 12:20 13.11.2015
1029.4 20.3 63 16.6 92 15.3 --- --- --- 860.8 12:25 13.11.2015
1029.4 20.3 63 16.7 92 15.4 --- --- --- 860.8 12:30 13.11.2015
1029.5 20.3 63 16.9 92 15.6 --- --- --- 860.8 12:35 13.11.2015
1029.4 20.3 63 16.9 91 15.4 16.9 0.0 N 860.8 12:40 13.11.2015
1029.5 20.3 63 16.8 89 14.9 16.8 0.0 N 860.8 12:45 13.11.2015
1029.7 20.2 63 16.8 88 14.8 16.8 0.0 N 860.8 12:50 13.11.2015
1029.6 20.2 63 16.9 88 14.9 16.9 0.0 N 860.8 12:55 13.11.2015
1029.6 20.2 63 17.0 86 14.6 17.0 0.0 N 860.8 13:00 13.11.2015
1029.7 20.2 63 17.0 84 14.2 17.0 0.0 N 860.8 13:05 13.11.2015
1029.7 20.2 64 16.9 84 14.1 16.9 0.0 N 860.8 13:10 13.11.2015
1029.6 20.2 64 17.1 85 14.5 --- --- --- 860.8 13:15 13.11.2015
1029.7 20.2 64 17.3 84 14.5 --- --- --- 860.8 13:20 13.11.2015
1029.7 20.2 64 17.5 82 14.4 17.5 0.0 NE 860.8 13:25 13.11.2015
1029.7 20.2 64 17.5 77 13.4 17.5 0.0 N 860.8 13:30 13.11.2015
1029.7 20.1 64 17.6 76 13.3 17.6 0.0 ESE 860.8 13:35 13.11.2015
1029.7 20.1 64 17.6 76 13.3 17.6 0.0 NNO 860.8 13:40 13.11.2015
1029.7 20.1 64 17.5 74 12.8 17.5 0.0 NNE 860.8 13:45 13.11.2015
1029.7 20.1 64 17.4 74 12.7 17.4 0.0 NE 860.8 13:50 13.11.2015
1029.7 20.1 64 17.2 75 12.7 17.2 0.0 NNO 860.8 13:55 13.11.2015
1029.7 20.1 64 17.1 75 12.6 17.1 0.0 NNE 860.8 14:00 13.11.2015
1029.7 20.1 64 16.9 75 12.4 16.9 0.0 NO 860.8 14:05 13.11.2015
1029.7 20.1 64 16.9 75 12.4 16.9 0.0 N 860.8 14:10 13.11.2015
1029.7 20.0 64 16.8 75 12.3 16.8 0.0 NNO 860.8 14:15 13.11.2015
1029.9 20.0 64 16.6 76 12.3 16.6 0.0 N 860.8 14:20 13.11.2015
1029.9 20.0 64 16.5 76 12.2 16.5 0.0 NNO 860.8 14:25 13.11.2015
1030.0 20.0 64 16.4 77 12.3 16.4 0.0 ONO 860.8 14:30 13.11.2015
1030.0 20.0 64 16.4 78 12.5 16.4 0.0 NNO 860.8 14:35 13.11.2015
1029.9 20.0 64 16.4 78 12.5 16.4 0.0 NNE 860.8 14:40 13.11.2015
1030.0 20.0 64 16.4 78 12.5 16.4 0.0 NO 860.8 14:45 13.11.2015
1030.2 20.0 64 16.3 76 12.0 16.3 0.0 NNO 860.8 14:50 13.11.2015
1030.2 20.0 64 16.1 76 11.8 16.1 0.0 OSO 860.8 14:55 13.11.2015
1030.2 20.0 64 15.8 75 11.3 15.8 0.0 N 860.8 15:00 13.11.2015
1030.1 20.0 64 15.6 76 11.4 15.6 0.0 NO 860.8 15:05 13.11.2015
1030.1 20.0 64 15.5 76 11.3 15.5 0.0 NNO 860.8 15:10 13.11.2015
1030.2 20.0 64 15.5 76 11.3 15.5 0.0 N 860.8 15:15 13.11.2015
1030.2 20.2 64 15.5 76 11.3 15.5 0.0 NNO 860.8 15:20 13.11.2015
1030.1 20.4 64 15.4 77 11.4 15.4 0.0 N 860.8 15:25 13.11.2015
1030.2 20.4 64 15.4 78 11.6 15.4 0.0 N 860.8 15:30 13.11.2015
1030.2 20.6 63 15.4 78 11.6 15.4 0.0 NNE 860.8 15:35 13.11.2015
1030.0 20.4 64 15.4 78 11.6 15.4 0.0 NO 860.8 15:40 13.11.2015
1030.1 20.4 64 15.4 78 11.6 15.4 0.0 NNE 860.8 15:45 13.11.2015
1030.2 20.4 64 15.4 77 11.4 15.4 0.0 NNE 860.8 15:50 13.11.2015
1030.4 20.3 64 15.3 75 10.9 15.3 0.0 N 860.8 15:55 13.11.2015
1030.5 20.3 64 14.9 74 10.3 14.9 0.0 NNE 860.8 16:00 13.11.2015
1030.5 20.3 64 14.9 75 10.5 14.9 0.0 NNO 860.8 16:05 13.11.2015
1030.6 20.3 64 14.9 75 10.5 14.9 0.0 NNE 860.8 16:10 13.11.2015
1030.7 20.3 64 14.9 75 10.5 14.9 0.0 N 860.8 16:15 13.11.2015
1030.7 20.2 64 14.9 76 10.7 14.9 0.0 N 860.8 16:20 13.11.2015
1030.8 20.2 64 14.7 76 10.5 14.7 0.0 NNE 860.8 16:25 13.11.2015
1030.8 20.2 64 14.5 75 10.1 14.5 0.0 N 860.8 16:30 13.11.2015
1031.0 20.2 64 14.4 76 10.2 14.4 0.0 N 860.8 16:35 13.11.2015
1031.1 20.2 64 14.3 76 10.1 14.3 0.0 NNO 860.8 16:40 13.11.2015
1031.1 20.4 63 14.1 76 9.9 14.1 0.0 N 860.8 16:45 13.11.2015
1031.2 20.6 63 13.9 77 9.9 13.9 0.0 N 860.8 16:50 13.11.2015
1031.1 20.8 63 13.8 78 10.0 13.8 0.0 N 860.8 16:55 13.11.2015
1031.2 20.9 63 13.5 78 9.7 13.5 0.0 N 860.8 17:00 13.11.2015
1031.2 21.1 62 13.4 78 9.6 13.4 0.0 N 860.8 17:05 13.11.2015
1031.3 21.2 62 13.3 78 9.5 13.3 0.0 N 860.8 17:10 13.11.2015
1031.3 21.3 62 13.1 77 9.1 13.1 0.0 NNO 860.8 17:15 13.11.2015
1031.2 21.4 62 12.9 77 8.9 12.9 0.0 N 860.8 17:20 13.11.2015
1031.3 21.3 62 12.8 77 8.8 12.8 0.0 NNE 860.8 17:25 13.11.2015
1031.3 21.2 62 12.5 77 8.5 12.5 0.0 N 860.8 17:30 13.11.2015
1031.3 21.2 62 12.4 77 8.4 12.4 0.0 N 860.8 17:35 13.11.2015
1031.3 21.1 63 12.2 77 8.3 12.2 0.0 N 860.8 17:40 13.11.2015
1031.3 21.1 63 11.9 78 8.2 11.9 0.0 N 860.8 17:45 13.11.2015
1031.5 21.0 63 11.8 78 8.1 11.8 0.0 N 860.8 17:50 13.11.2015
1031.6 21.0 63 11.5 79 7.9 11.5 0.0 N 860.8 17:55 13.11.2015
1031.7 20.9 63 11.2 80 7.8 11.2 0.0 N 860.8 18:00 13.11.2015
1031.8 20.9 63 11.1 80 7.7 11.1 0.0 N 860.8 18:05 13.11.2015
1031.7 21.0 62 10.9 81 7.7 10.9 0.0 N 860.8 18:10 13.11.2015
1032.0 21.2 62 10.7 81 7.5 10.7 0.0 N 860.8 18:15 13.11.2015
1032.1 21.4 62 10.6 81 7.4 10.6 0.0 N 860.8 18:20 13.11.2015
1031.7 21.5 61 10.4 82 7.4 10.4 0.0 N 860.8 18:25 13.11.2015
1031.8 21.6 61 10.3 82 7.3 10.3 0.0 N 860.8 18:30 13.11.2015
1032.1 21.8 61 10.2 82 7.2 10.2 0.0 N 860.8 18:35 13.11.2015
1031.8 21.9 61 10.1 83 7.3 10.1 0.0 N 860.8 18:40 13.11.2015
1032.2 22.0 61 9.9 83 7.1 9.9 0.0 N 860.8 18:45 13.11.2015
1032.2 22.1 60 9.8 84 7.2 9.8 0.0 N 860.8 18:50 13.11.2015
1032.2 22.2 60 9.6 84 7.0 9.6 0.0 N 860.8 18:55 13.11.2015
1032.2 22.2 60 9.4 84 6.8 9.4 0.0 N 860.8 19:00 13.11.2015
1032.5 22.1 60 9.3 84 6.7 9.3 0.0 N 860.8 19:05 13.11.2015
1032.2 22.0 60 9.3 84 6.7 9.3 0.0 N 860.8 19:10 13.11.2015
1032.6 21.9 60 9.2 85 6.8 9.2 0.0 N 860.8 19:15 13.11.2015
1032.6 21.8 60 9.1 85 6.7 9.1 0.0 N 860.8 19:20 13.11.2015
1032.7 21.8 60 9.1 85 6.7 9.1 0.0 N 860.8 19:25 13.11.2015
1032.6 21.7 60 9.0 85 6.6 9.0 0.0 N 860.8 19:30 13.11.2015
1032.7 21.6 60 9.0 85 6.6 9.0 0.0 N 860.8 19:35 13.11.2015
1032.6 21.6 60 8.9 86 6.6 8.9 0.0 N 860.8 19:40 13.11.2015
1032.6 21.5 61 8.9 86 6.6 8.9 0.0 N 860.8 19:45 13.11.2015
1032.7 21.7 60 8.9 86 6.6 8.9 0.0 ONO 860.8 19:50 13.11.2015
1032.8 21.8 60 8.9 86 6.6 8.9 0.0 ONO 860.8 19:55 13.11.2015
1032.8 22.0 60 8.9 86 6.6 8.9 0.0 ONO 860.8 20:00 13.11.2015
1032.7 22.1 60 8.9 87 6.8 8.9 0.0 ONO 860.8 20:05 13.11.2015
1032.8 22.2 60 8.9 87 6.8 8.9 0.0 ONO 860.8 20:10 13.11.2015

Publicité


Signaler le contenu de ce document

Publicité